createdAt,value
2019-02-17T00:00:11.626Z,61.43
2019-02-17T00:02:40.082Z,61.68
2019-02-17T00:05:08.803Z,61.54
2019-02-17T00:07:37.186Z,61.42
2019-02-17T00:10:06.301Z,61.73
2019-02-17T00:12:34.758Z,61.59
2019-02-17T00:15:03.349Z,61.50
2019-02-17T00:17:31.922Z,61.29
2019-02-17T00:20:00.327Z,61.14
2019-02-17T00:22:28.765Z,61.37
2019-02-17T00:24:57.476Z,61.54
2019-02-17T00:27:25.879Z,61.78
2019-02-17T00:29:54.306Z,61.97
2019-02-17T00:32:22.803Z,61.28
2019-02-17T00:34:51.293Z,61.66
2019-02-17T00:37:19.966Z,62.49
2019-02-17T00:39:48.486Z,62.76
2019-02-17T00:42:16.870Z,62.76
2019-02-17T00:44:45.326Z,62.90
2019-02-17T00:47:13.786Z,63.19
2019-02-17T00:49:42.303Z,63.40
2019-02-17T00:52:10.667Z,63.66
2019-02-17T00:54:39.226Z,63.92
2019-02-17T00:57:07.659Z,63.83
2019-02-17T00:59:36.280Z,63.90
2019-02-17T01:02:04.807Z,63.68
2019-02-17T01:04:33.199Z,63.65
2019-02-17T01:07:01.650Z,63.54
2019-02-17T01:09:30.310Z,63.31
2019-02-17T01:11:59.151Z,63.15
2019-02-17T01:14:27.878Z,63.01
2019-02-17T01:16:56.552Z,63.20
2019-02-17T01:19:25.104Z,63.41
2019-02-17T01:21:53.508Z,63.40
2019-02-17T01:24:21.874Z,63.74
2019-02-17T01:26:50.376Z,63.89
2019-02-17T01:29:20.785Z,64.11
2019-02-17T01:31:48.924Z,64.18
2019-02-17T01:34:17.368Z,64.22
2019-02-17T01:36:45.770Z,64.18
2019-02-17T01:39:14.223Z,64.22
2019-02-17T01:41:42.619Z,64.41
2019-02-17T01:44:11.066Z,64.53
2019-02-17T01:46:39.840Z,64.30
2019-02-17T01:49:08.244Z,64.24
2019-02-17T01:51:36.653Z,64.29
2019-02-17T01:54:05.445Z,64.19
2019-02-17T01:56:33.855Z,64.14
2019-02-17T01:59:02.560Z,64.05
2019-02-17T02:01:31.013Z,63.91
2019-02-17T02:03:59.473Z,64.19
2019-02-17T02:06:27.945Z,64.60
2019-02-17T02:08:56.411Z,64.68
2019-02-17T02:11:25.114Z,64.82
2019-02-17T02:13:53.593Z,65.05
2019-02-17T02:16:21.975Z,65.20
2019-02-17T02:18:50.714Z,65.19
2019-02-17T02:21:19.128Z,65.32
2019-02-17T02:23:47.580Z,65.13
2019-02-17T02:26:16.048Z,65.21
2019-02-17T02:28:44.484Z,65.15
2019-02-17T02:31:12.954Z,65.07
2019-02-17T02:33:41.338Z,65.03
2019-02-17T02:36:09.692Z,65.01
2019-02-17T02:38:38.118Z,65.06
2019-02-17T02:41:06.855Z,65.14
2019-02-17T02:43:35.300Z,65.25
2019-02-17T02:46:03.770Z,65.18
2019-02-17T02:48:32.305Z,65.20
2019-02-17T02:51:00.743Z,65.30
2019-02-17T02:53:29.190Z,65.38
2019-02-17T02:55:57.638Z,65.56
2019-02-17T02:58:26.083Z,65.33
2019-02-17T03:00:54.646Z,65.63
2019-02-17T03:03:23.018Z,65.69
2019-02-17T03:05:53.085Z,65.76
2019-02-17T03:08:21.441Z,66.05
2019-02-17T03:10:50.038Z,66.10
2019-02-17T03:13:18.566Z,66.38
2019-02-17T03:15:46.943Z,66.26
2019-02-17T03:18:15.364Z,66.16
2019-02-17T03:20:44.102Z,66.49
2019-02-17T03:23:12.453Z,66.23
2019-02-17T03:25:40.926Z,66.26
2019-02-17T03:28:09.364Z,66.52
2019-02-17T03:30:37.848Z,66.52
2019-02-17T03:33:07.616Z,66.37
2019-02-17T03:35:35.975Z,66.30
2019-02-17T03:38:04.703Z,66.49
2019-02-17T03:40:33.231Z,66.55
2019-02-17T03:43:01.935Z,66.46
2019-02-17T03:45:30.339Z,66.44
2019-02-17T03:47:58.778Z,66.55
2019-02-17T03:50:27.145Z,66.64
2019-02-17T03:52:55.573Z,66.99
2019-02-17T03:55:23.932Z,66.72
2019-02-17T03:57:52.402Z,66.72
2019-02-17T04:00:21.172Z,66.84
2019-02-17T04:02:49.831Z,67.17
2019-02-17T04:05:18.317Z,67.26
2019-02-17T04:07:46.697Z,67.49
2019-02-17T04:10:15.169Z,67.54
2019-02-17T04:12:43.619Z,67.87
2019-02-17T04:15:12.154Z,67.59
2019-02-17T04:17:40.620Z,67.41
2019-02-17T04:20:09.163Z,67.33
2019-02-17T04:22:37.671Z,67.36
2019-02-17T04:25:06.543Z,67.51
2019-02-17T04:27:35.042Z,67.42
2019-02-17T04:30:03.858Z,67.43
2019-02-17T04:32:32.244Z,67.52
2019-02-17T04:35:00.744Z,67.43
2019-02-17T04:37:29.125Z,67.58
2019-02-17T04:39:57.533Z,67.83
2019-02-17T04:42:25.971Z,67.60
2019-02-17T04:44:54.350Z,68.08
2019-02-17T04:47:22.804Z,68.27
2019-02-17T04:49:51.256Z,68.15
2019-02-17T04:52:19.732Z,68.42
2019-02-17T04:54:48.420Z,68.30
2019-02-17T04:57:16.839Z,68.49
2019-02-17T04:59:45.295Z,68.36
2019-02-17T05:02:13.773Z,68.39
2019-02-17T05:04:42.149Z,68.33
2019-02-17T05:07:10.591Z,68.50
2019-02-17T05:09:39.057Z,68.76
2019-02-17T05:12:07.511Z,68.72
2019-02-17T05:14:35.973Z,68.78
2019-02-17T05:17:04.765Z,68.87
2019-02-17T05:19:33.169Z,68.82
2019-02-17T05:22:01.540Z,68.95
2019-02-17T05:24:29.945Z,68.98
2019-02-17T05:26:58.388Z,69.10
2019-02-17T05:29:27.132Z,69.08
2019-02-17T05:31:55.524Z,68.96
2019-02-17T05:34:23.883Z,68.95
2019-02-17T05:36:52.639Z,69.14
2019-02-17T05:39:21.019Z,69.09
2019-02-17T05:41:49.664Z,69.01
2019-02-17T05:44:18.050Z,69.36
2019-02-17T05:46:46.504Z,69.53
2019-02-17T05:49:14.948Z,69.59
2019-02-17T05:51:43.338Z,69.39
2019-02-17T05:54:11.709Z,69.43
2019-02-17T05:56:40.132Z,69.53
2019-02-17T05:59:08.513Z,69.57
2019-02-17T06:01:37.184Z,69.52
2019-02-17T06:04:05.642Z,69.72
2019-02-17T06:06:34.005Z,69.86
2019-02-17T06:09:02.391Z,69.89
2019-02-17T06:11:30.797Z,69.81
2019-02-17T06:13:59.344Z,69.94
2019-02-17T06:16:27.798Z,69.90
2019-02-17T06:18:56.176Z,70.00
2019-02-17T06:21:24.633Z,69.85
2019-02-17T06:23:53.380Z,69.87
2019-02-17T06:26:21.776Z,69.92
2019-02-17T06:28:50.386Z,70.03
2019-02-17T06:31:18.803Z,70.11
2019-02-17T06:33:47.173Z,70.34
2019-02-17T06:36:15.557Z,71.16
2019-02-17T06:38:43.972Z,71.74
2019-02-17T06:41:12.327Z,71.56
2019-02-17T06:43:40.730Z,71.25
2019-02-17T06:46:10.754Z,70.92
2019-02-17T06:48:39.142Z,71.32
2019-02-17T06:51:07.529Z,71.32
2019-02-17T06:53:36.163Z,71.29
2019-02-17T06:56:06.175Z,71.07
2019-02-17T06:58:34.665Z,70.94
2019-02-17T07:01:03.365Z,70.83
2019-02-17T07:03:31.829Z,70.77
2019-02-17T07:06:13.682Z,70.75
2019-02-17T07:08:42.056Z,70.48
2019-02-17T07:11:10.756Z,71.27
2019-02-17T07:13:39.279Z,72.09
2019-02-17T07:16:07.915Z,72.28
2019-02-17T07:18:36.372Z,72.56
2019-02-17T07:21:04.815Z,72.50
2019-02-17T07:23:33.344Z,72.33
2019-02-17T07:26:01.729Z,72.03
2019-02-17T07:28:30.227Z,71.71
2019-02-17T07:30:58.886Z,71.60
2019-02-17T07:33:27.308Z,71.94
2019-02-17T07:35:56.066Z,72.67
2019-02-17T07:38:24.452Z,72.80
2019-02-17T07:40:52.960Z,72.63
2019-02-17T07:43:21.450Z,72.10
2019-02-17T07:45:49.897Z,72.10
2019-02-17T07:48:18.293Z,71.33
2019-02-17T07:50:46.836Z,71.43
2019-02-17T07:53:15.225Z,71.64
2019-02-17T07:55:43.607Z,71.59
2019-02-17T07:58:12.025Z,71.64
2019-02-17T08:00:40.519Z,71.94
2019-02-17T08:03:08.956Z,71.72
2019-02-17T08:05:37.789Z,71.24
2019-02-17T08:08:06.319Z,70.88
2019-02-17T08:10:35.306Z,70.13
2019-02-17T08:13:03.711Z,69.60
2019-02-17T08:15:32.106Z,69.29
2019-02-17T08:18:00.565Z,68.90
2019-02-17T08:20:28.958Z,68.25
2019-02-17T08:22:57.348Z,68.26
2019-02-17T08:25:25.794Z,68.17
2019-02-17T08:27:54.411Z,67.95
2019-02-17T08:30:23.124Z,68.37
2019-02-17T08:32:51.626Z,68.41
2019-02-17T08:35:20.034Z,67.60
2019-02-17T08:37:48.527Z,67.31
2019-02-17T08:40:17.020Z,66.93
2019-02-17T08:42:45.467Z,66.90
2019-02-17T08:45:13.927Z,66.41
2019-02-17T08:47:42.300Z,65.78
2019-02-17T08:50:11.773Z,65.47
2019-02-17T08:52:40.492Z,65.63
2019-02-17T08:55:10.566Z,65.07
2019-02-17T08:57:38.968Z,64.31
2019-02-17T09:00:12.642Z,64.34
2019-02-17T09:02:41.059Z,64.04
2019-02-17T09:05:09.557Z,64.07
2019-02-17T09:07:38.237Z,63.99
2019-02-17T09:10:09.632Z,63.00
2019-02-17T09:12:38.082Z,63.07
2019-02-17T09:15:09.375Z,62.48
2019-02-17T09:17:38.078Z,62.14
2019-02-17T09:20:08.203Z,62.03
2019-02-17T09:22:36.651Z,61.58
2019-02-17T09:25:07.632Z,61.96
2019-02-17T09:27:36.252Z,61.85
2019-02-17T09:30:07.294Z,61.05
2019-02-17T09:32:35.686Z,61.53
2019-02-17T09:35:04.607Z,60.94
2019-02-17T09:37:33.112Z,60.89
2019-02-17T09:40:01.492Z,60.09
2019-02-17T09:42:29.972Z,60.54
2019-02-17T09:44:58.422Z,61.02
2019-02-17T09:47:27.168Z,61.42
2019-02-17T09:49:55.819Z,61.49
2019-02-17T09:52:24.545Z,60.67
2019-02-17T09:54:53.047Z,60.18
2019-02-17T09:57:21.590Z,60.60
2019-02-17T09:59:50.214Z,60.30
2019-02-17T10:02:26.205Z,60.05
2019-02-17T10:04:48.789Z,59.24
2019-02-17T10:07:17.194Z,58.91
2019-02-17T10:09:45.657Z,58.75
2019-02-17T10:12:14.133Z,58.87
2019-02-17T10:14:42.507Z,58.39
2019-02-17T10:17:10.888Z,58.09
2019-02-17T10:19:39.416Z,58.12
2019-02-17T10:22:07.875Z,58.22
2019-02-17T10:24:36.329Z,57.44
2019-02-17T10:27:05.059Z,57.54
2019-02-17T10:29:33.440Z,57.44
2019-02-17T10:32:02.181Z,56.94
2019-02-17T10:34:30.737Z,56.64
2019-02-17T10:36:59.178Z,56.42
2019-02-17T10:39:27.812Z,56.49
2019-02-17T10:41:56.247Z,55.95
2019-02-17T10:44:24.678Z,56.26
2019-02-17T10:46:53.214Z,55.99
2019-02-17T10:49:21.656Z,55.95
2019-02-17T10:51:50.066Z,55.83
2019-02-17T10:54:18.495Z,55.87
2019-02-17T10:56:47.229Z,55.18
2019-02-17T10:59:15.614Z,55.07
2019-02-17T11:01:44.354Z,54.46
2019-02-17T11:04:12.806Z,54.87
2019-02-17T11:06:41.277Z,54.39
2019-02-17T11:09:20.068Z,54.02
2019-02-17T11:11:48.644Z,54.51
2019-02-17T11:14:17.161Z,53.42
2019-02-17T11:16:45.642Z,53.35
2019-02-17T11:19:14.103Z,52.72
2019-02-17T11:21:42.604Z,52.94
2019-02-17T11:24:11.134Z,53.08
2019-02-17T11:26:39.525Z,52.31
2019-02-17T11:29:08.058Z,52.52
2019-02-17T11:31:36.600Z,52.55
2019-02-17T11:34:05.476Z,51.80
2019-02-17T11:36:33.935Z,51.98
2019-02-17T11:39:02.399Z,52.10
2019-02-17T11:41:30.832Z,52.41
2019-02-17T11:43:59.682Z,51.98
2019-02-17T11:46:28.241Z,51.76
2019-02-17T11:48:56.622Z,51.29
2019-02-17T11:51:25.045Z,51.27
2019-02-17T11:53:53.498Z,51.63
2019-02-17T11:56:21.902Z,51.42
2019-02-17T11:58:50.358Z,51.17
2019-02-17T12:01:18.748Z,51.57
2019-02-17T12:03:47.199Z,50.62
2019-02-17T12:06:15.941Z,50.89
2019-02-17T12:08:48.459Z,50.39
2019-02-17T12:11:17.095Z,50.27
2019-02-17T12:13:45.603Z,50.32
2019-02-17T12:16:13.982Z,50.43
2019-02-17T12:18:42.402Z,50.13
2019-02-17T12:21:27.324Z,49.98
2019-02-17T12:24:11.107Z,50.17
2019-02-17T12:26:44.233Z,50.01
2019-02-17T12:29:29.021Z,50.16
2019-02-17T12:31:57.918Z,49.98
2019-02-17T12:34:26.339Z,49.72
2019-02-17T12:36:54.866Z,49.99
2019-02-17T12:39:23.269Z,50.02
2019-02-17T12:41:51.630Z,49.06
2019-02-17T12:44:20.043Z,49.65
2019-02-17T12:46:48.498Z,49.43
2019-02-17T12:49:16.907Z,48.94
2019-02-17T12:51:45.631Z,49.75
2019-02-17T12:54:14.101Z,49.04
2019-02-17T12:56:42.534Z,48.64
2019-02-17T12:59:10.918Z,48.65
2019-02-17T13:01:39.308Z,48.97
2019-02-17T13:04:07.763Z,48.50
2019-02-17T13:06:36.241Z,48.77
2019-02-17T13:09:06.303Z,48.71
2019-02-17T13:11:34.823Z,48.43
2019-02-17T13:14:03.267Z,48.16
2019-02-17T13:16:31.686Z,48.13
2019-02-17T13:19:00.140Z,48.44
2019-02-17T13:21:28.856Z,47.80
2019-02-17T13:23:57.309Z,47.85
2019-02-17T13:26:25.795Z,48.00
2019-02-17T13:28:54.684Z,48.22
2019-02-17T13:31:23.214Z,47.65
2019-02-17T13:33:51.675Z,47.96
2019-02-17T13:36:20.359Z,47.90
2019-02-17T13:38:48.761Z,47.79
2019-02-17T13:41:17.276Z,46.91
2019-02-17T13:43:46.054Z,46.55
2019-02-17T13:46:14.685Z,46.97
2019-02-17T13:48:43.151Z,47.38
2019-02-17T13:51:11.805Z,46.99
2019-02-17T13:53:40.195Z,46.62
2019-02-17T13:56:08.735Z,46.89
2019-02-17T13:58:37.119Z,46.52
2019-02-17T14:01:05.648Z,47.31
2019-02-17T14:03:34.104Z,47.68
2019-02-17T14:06:03.997Z,47.34
2019-02-17T14:08:32.429Z,47.14
2019-02-17T14:11:01.194Z,47.31
2019-02-17T14:13:29.587Z,47.52
2019-02-17T14:15:57.974Z,47.58
2019-02-17T14:18:26.658Z,48.07
2019-02-17T14:20:55.114Z,48.43
2019-02-17T14:23:23.532Z,49.05
2019-02-17T14:25:51.909Z,49.25
2019-02-17T14:28:20.297Z,49.31
2019-02-17T14:30:48.761Z,49.44
2019-02-17T14:33:17.297Z,49.72
2019-02-17T14:35:45.725Z,49.95
2019-02-17T14:38:14.356Z,50.10
2019-02-17T14:40:42.743Z,50.16
2019-02-17T14:43:11.261Z,50.15
2019-02-17T14:45:39.872Z,49.00
2019-02-17T14:48:08.580Z,46.99
2019-02-17T14:50:37.006Z,46.59
2019-02-17T14:53:05.474Z,46.96
2019-02-17T14:55:34.055Z,47.84
2019-02-17T14:58:05.311Z,48.44
2019-02-17T15:00:32.616Z,49.08
2019-02-17T15:03:01.054Z,49.43
2019-02-17T15:05:29.515Z,49.77
2019-02-17T15:07:58.001Z,49.98
2019-02-17T15:10:26.459Z,50.09
2019-02-17T15:12:54.874Z,50.51
2019-02-17T15:15:23.293Z,51.00
2019-02-17T15:17:52.000Z,51.15
2019-02-17T15:20:24.953Z,51.65
2019-02-17T15:22:53.419Z,52.12
2019-02-17T15:25:21.782Z,52.27
2019-02-17T15:27:50.188Z,52.45
2019-02-17T15:30:18.623Z,52.64
2019-02-17T15:32:47.113Z,52.77
2019-02-17T15:35:15.570Z,53.03
2019-02-17T15:37:44.039Z,53.30
2019-02-17T15:40:13.569Z,53.47
2019-02-17T15:42:43.282Z,53.26
2019-02-17T15:45:12.815Z,53.35
2019-02-17T15:47:41.285Z,53.44
2019-02-17T15:50:13.788Z,53.62
2019-02-17T15:52:42.312Z,53.91
2019-02-17T15:55:13.130Z,54.31
2019-02-17T15:57:41.659Z,54.44
2019-02-17T16:00:18.227Z,54.50
2019-02-17T16:02:46.921Z,54.53
2019-02-17T16:05:15.459Z,54.64
2019-02-17T16:07:44.191Z,54.80
2019-02-17T16:10:13.790Z,55.02
2019-02-17T16:12:42.278Z,55.14
2019-02-17T16:15:14.111Z,55.35
2019-02-17T16:17:42.653Z,55.67
2019-02-17T16:20:12.986Z,56.02
2019-02-17T16:22:41.463Z,56.09
2019-02-17T16:25:10.944Z,56.33
2019-02-17T16:27:39.472Z,56.46
2019-02-17T16:30:13.070Z,56.59
2019-02-17T16:32:41.727Z,56.66
2019-02-17T16:35:10.200Z,56.74
2019-02-17T16:37:38.629Z,57.06
2019-02-17T16:40:16.058Z,57.23
2019-02-17T16:42:44.498Z,57.47
2019-02-17T16:45:15.011Z,57.57
2019-02-17T16:47:46.499Z,57.71
2019-02-17T16:50:18.054Z,57.83
2019-02-17T16:52:46.545Z,57.98
2019-02-17T16:55:15.026Z,58.23
2019-02-17T16:57:43.861Z,58.44
2019-02-17T17:00:23.938Z,58.58
2019-02-17T17:02:56.220Z,58.65
2019-02-17T17:05:27.102Z,58.49
2019-02-17T17:07:55.578Z,58.55
2019-02-17T17:10:24.792Z,58.69
2019-02-17T17:12:53.270Z,58.77
2019-02-17T17:15:21.843Z,58.95
2019-02-17T17:17:50.319Z,59.03
2019-02-17T17:20:21.009Z,58.86
2019-02-17T17:22:50.259Z,58.96
2019-02-17T17:25:18.825Z,58.95
2019-02-17T17:27:47.452Z,59.01
2019-02-17T17:30:17.122Z,59.13
2019-02-17T17:32:45.712Z,59.24
2019-02-17T17:35:14.343Z,59.37
2019-02-17T17:37:43.138Z,59.44
2019-02-17T17:40:13.759Z,59.62
2019-02-17T17:42:42.264Z,59.70
2019-02-17T17:45:14.084Z,59.81
2019-02-17T17:47:42.601Z,60.01
2019-02-17T17:50:13.033Z,60.13
2019-02-17T17:52:41.487Z,60.14
2019-02-17T17:55:11.190Z,60.29
2019-02-17T17:57:39.708Z,60.54
2019-02-17T18:00:17.580Z,60.54
2019-02-17T18:02:46.262Z,60.79
2019-02-17T18:05:14.867Z,60.66
2019-02-17T18:07:43.405Z,60.69
2019-02-17T18:10:18.727Z,60.73
2019-02-17T18:12:47.559Z,60.82
2019-02-17T18:15:19.953Z,60.93
2019-02-17T18:17:54.355Z,61.07
2019-02-17T18:20:18.788Z,61.06
2019-02-17T18:22:47.259Z,61.20
2019-02-17T18:25:16.013Z,61.24
2019-02-17T18:27:44.427Z,61.37
2019-02-17T18:30:20.136Z,61.51
2019-02-17T18:32:48.744Z,61.72
2019-02-17T18:35:20.328Z,61.77
2019-02-17T18:37:47.417Z,61.81
2019-02-17T18:40:19.667Z,61.89
2019-02-17T18:42:48.129Z,62.12
2019-02-17T18:45:16.965Z,62.34
2019-02-17T18:47:45.670Z,62.33
2019-02-17T18:50:14.990Z,62.42
2019-02-17T18:52:43.843Z,62.53
2019-02-17T18:55:13.348Z,62.73
2019-02-17T18:57:49.565Z,62.96
2019-02-17T19:00:20.309Z,62.83
2019-02-17T19:02:48.840Z,62.90
2019-02-17T19:05:17.267Z,63.02
2019-02-17T19:07:46.020Z,63.10
2019-02-17T19:10:15.326Z,63.24
2019-02-17T19:12:43.762Z,63.29
2019-02-17T19:15:14.085Z,63.34
2019-02-17T19:17:42.728Z,63.64
2019-02-17T19:20:17.281Z,63.71
2019-02-17T19:22:45.738Z,63.73
2019-02-17T19:25:14.217Z,63.84
2019-02-17T19:27:42.731Z,64.07
2019-02-17T19:30:15.268Z,64.02
2019-02-17T19:32:43.657Z,64.13
2019-02-17T19:35:14.207Z,64.25
2019-02-17T19:37:42.725Z,64.29
2019-02-17T19:40:14.996Z,64.50
2019-02-17T19:42:43.431Z,64.75
2019-02-17T19:45:15.184Z,64.75
2019-02-17T19:47:43.724Z,64.79
2019-02-17T19:50:13.539Z,65.05
2019-02-17T19:52:42.118Z,65.03
2019-02-17T19:55:12.678Z,65.01
2019-02-17T19:57:41.403Z,65.14
2019-02-17T20:00:15.686Z,65.28
2019-02-17T20:02:45.838Z,65.41
2019-02-17T20:05:21.736Z,65.55
2019-02-17T20:07:52.750Z,65.74
2019-02-17T20:10:20.660Z,65.79
2019-02-17T20:12:50.049Z,65.91
2019-02-17T20:15:18.626Z,66.09
2019-02-17T20:17:47.026Z,66.04
2019-02-17T20:20:15.416Z,66.12
2019-02-17T20:22:43.801Z,66.19
2019-02-17T20:25:12.363Z,66.34
2019-02-17T20:27:40.715Z,66.38
2019-02-17T20:30:13.886Z,66.45
2019-02-17T20:32:42.438Z,66.58
2019-02-17T20:35:11.094Z,67.05
2019-02-17T20:37:39.825Z,66.82
2019-02-17T20:40:11.407Z,67.01
2019-02-17T20:42:39.956Z,67.13
2019-02-17T20:45:10.271Z,67.01
2019-02-17T20:47:38.641Z,67.00
2019-02-17T20:50:14.567Z,67.15
2019-02-17T20:52:43.049Z,67.21
2019-02-17T20:55:12.400Z,67.29
2019-02-17T20:57:40.922Z,67.24
2019-02-17T21:00:22.840Z,67.36
2019-02-17T21:02:51.534Z,67.44
2019-02-17T21:05:20.107Z,67.82
2019-02-17T21:07:48.887Z,67.91
2019-02-17T21:10:17.392Z,67.88
2019-02-17T21:12:45.882Z,67.93
2019-02-17T21:15:16.568Z,67.91
2019-02-17T21:17:45.064Z,68.03
2019-02-17T21:20:13.991Z,67.87
2019-02-17T21:22:42.445Z,68.18
2019-02-17T21:25:14.634Z,68.29
2019-02-17T21:27:43.036Z,68.24
2019-02-17T21:30:18.641Z,68.33
2019-02-17T21:32:47.578Z,68.40
2019-02-17T21:35:16.885Z,68.54
2019-02-17T21:37:45.356Z,68.48
2019-02-17T21:40:14.529Z,68.60
2019-02-17T21:42:43.085Z,68.62
2019-02-17T21:45:13.818Z,68.78
2019-02-17T21:47:42.172Z,68.60
2019-02-17T21:50:12.591Z,68.78
2019-02-17T21:52:42.094Z,68.80
2019-02-17T21:55:12.092Z,69.14
2019-02-17T21:57:41.023Z,68.89
2019-02-17T22:00:21.685Z,68.95
2019-02-17T22:02:50.140Z,68.80
2019-02-17T22:05:19.064Z,68.90
2019-02-17T22:07:47.774Z,68.99
2019-02-17T22:10:19.808Z,69.04
2019-02-17T22:12:50.893Z,69.13
2019-02-17T22:15:20.939Z,69.12
2019-02-17T22:17:49.505Z,69.37
2019-02-17T22:20:17.940Z,69.47
2019-02-17T22:22:46.418Z,69.39
2019-02-17T22:25:15.347Z,69.43
2019-02-17T22:27:43.793Z,69.48
2019-02-17T22:30:15.838Z,69.37
2019-02-17T22:32:44.357Z,69.48
2019-02-17T22:35:14.084Z,69.42
2019-02-17T22:37:42.569Z,69.37
2019-02-17T22:40:12.747Z,69.42
2019-02-17T22:42:41.326Z,69.37
2019-02-17T22:45:10.975Z,69.31
2019-02-17T22:47:39.476Z,69.26
2019-02-17T22:50:14.983Z,69.14
2019-02-17T22:52:44.593Z,69.14
2019-02-17T22:55:14.083Z,69.15
2019-02-17T22:57:42.607Z,69.23
2019-02-17T23:00:20.031Z,69.23
2019-02-17T23:02:48.467Z,69.21
2019-02-17T23:05:17.188Z,69.44
2019-02-17T23:07:45.569Z,69.59
2019-02-17T23:10:14.107Z,69.56
2019-02-17T23:12:42.845Z,69.59
2019-02-17T23:15:11.528Z,69.55
2019-02-17T23:17:40.230Z,69.63
2019-02-17T23:20:08.826Z,69.56
2019-02-17T23:22:37.531Z,69.32
2019-02-17T23:25:08.447Z,69.62
2019-02-17T23:27:36.893Z,69.69
2019-02-17T23:30:07.414Z,69.79
2019-02-17T23:32:36.139Z,69.90
2019-02-17T23:35:05.223Z,69.82
2019-02-17T23:37:33.668Z,69.63
2019-02-17T23:40:02.126Z,69.72
2019-02-17T23:42:30.846Z,69.81
2019-02-17T23:44:59.615Z,69.71
2019-02-17T23:47:28.223Z,69.71
2019-02-17T23:49:56.625Z,69.80
2019-02-17T23:52:25.245Z,69.88
2019-02-17T23:54:53.917Z,69.85
2019-02-17T23:57:22.371Z,69.86
2019-02-17T23:59:51.066Z,69.87
